Ash, North Carolina
Current Conditions -  °F | °C
As of 3:53 PM on Thursday 27 Nov 2014 (Local Time) from KCRE Reporting Station
Clear Clear  
Wind Chill: 53°   Ceiling: Unl
Heat Index: 53°   Visibility: 10mi
Dew Point: 35°   Wind: 12mph
Humidity: 50%   Direction: 340°NNW
Pressure: 30.09"   Gusts: 23mph
Location:  34.04°N, 78.52°W
Report Text: KCRE 272053Z 34010G20KT 300V010 10SM CLR 12/02 A3009 RMK AO1 SLP191 T01170017 53022
Loading
Personal Weather Stations






























Interactive Weather Map New forecast layout! Learn more

10-Day Weather Forecast

Advertisements
Track Severe Weather on mobile